sensor_id;sensor_type;location;lat;lon;timestamp;temperature;humidity
27164;DHT22;14685;50.618;7.024;2023-05-10T00:02:19;17.30;99.90
27164;DHT22;14685;50.618;7.024;2023-05-10T00:04:47;17.30;99.90
27164;DHT22;14685;50.618;7.024;2023-05-10T00:07:15;17.30;99.90
27164;DHT22;14685;50.618;7.024;2023-05-10T00:09:44;17.30;99.90
27164;DHT22;14685;50.618;7.024;2023-05-10T00:12:12;17.20;99.90
27164;DHT22;14685;50.618;7.024;2023-05-10T00:14:39;17.20;99.90
27164;DHT22;14685;50.618;7.024;2023-05-10T00:17:06;17.20;99.90
27164;DHT22;14685;50.618;7.024;2023-05-10T00:19:33;17.20;99.90
27164;DHT22;14685;50.618;7.024;2023-05-10T00:22:00;17.20;99.90
27164;DHT22;14685;50.618;7.024;2023-05-10T00:24:29;17.10;99.90
27164;DHT22;14685;50.618;7.024;2023-05-10T00:26:56;17.10;99.90
27164;DHT22;14685;50.618;7.024;2023-05-10T00:29:23;17.10;99.90
27164;DHT22;14685;50.618;7.024;2023-05-10T00:31:52;17.10;99.90
27164;DHT22;14685;50.618;7.024;2023-05-10T00:34:22;17.10;99.90
27164;DHT22;14685;50.618;7.024;2023-05-10T00:36:48;17.10;99.90
27164;DHT22;14685;50.618;7.024;2023-05-10T00:39:15;17.10;99.90
27164;DHT22;14685;50.618;7.024;2023-05-10T00:41:42;17.00;99.90
27164;DHT22;14685;50.618;7.024;2023-05-10T00:44:09;17.00;99.90
27164;DHT22;14685;50.618;7.024;2023-05-10T00:46:36;17.00;99.90
27164;DHT22;14685;50.618;7.024;2023-05-10T00:49:04;17.10;99.90
27164;DHT22;14685;50.618;7.024;2023-05-10T00:51:31;17.10;99.90
27164;DHT22;14685;50.618;7.024;2023-05-10T00:53:58;17.00;99.90
27164;DHT22;14685;50.618;7.024;2023-05-10T00:56:26;17.00;99.90
27164;DHT22;14685;50.618;7.024;2023-05-10T00:58:55;17.00;99.90
27164;DHT22;14685;50.618;7.024;2023-05-10T01:01:22;17.00;99.90
27164;DHT22;14685;50.618;7.024;2023-05-10T01:03:49;17.00;99.90
27164;DHT22;14685;50.618;7.024;2023-05-10T01:06:16;17.00;99.90
27164;DHT22;14685;50.618;7.024;2023-05-10T01:08:43;16.90;99.90
27164;DHT22;14685;50.618;7.024;2023-05-10T01:11:11;16.90;99.90
27164;DHT22;14685;50.618;7.024;2023-05-10T01:13:39;16.90;99.90
27164;DHT22;14685;50.618;7.024;2023-05-10T01:16:08;16.90;99.90
27164;DHT22;14685;50.618;7.024;2023-05-10T01:18:40;16.90;99.90
27164;DHT22;14685;50.618;7.024;2023-05-10T01:26:41;16.90;99.90
27164;DHT22;14685;50.618;7.024;2023-05-10T01:37:42;16.80;99.90
27164;DHT22;14685;50.618;7.024;2023-05-10T01:40:25;16.70;99.90
27164;DHT22;14685;50.618;7.024;2023-05-10T01:43:00;16.70;99.90
27164;DHT22;14685;50.618;7.024;2023-05-10T01:45:36;16.80;99.90
27164;DHT22;14685;50.618;7.024;2023-05-10T01:48:11;16.80;99.90
27164;DHT22;14685;50.618;7.024;2023-05-10T01:50:42;16.80;99.90
27164;DHT22;14685;50.618;7.024;2023-05-10T01:53:12;16.80;99.90
27164;DHT22;14685;50.618;7.024;2023-05-10T01:55:51;16.80;99.90
27164;DHT22;14685;50.618;7.024;2023-05-10T01:58:29;16.80;99.90
27164;DHT22;14685;50.618;7.024;2023-05-10T02:01:00;16.80;99.90
27164;DHT22;14685;50.618;7.024;2023-05-10T02:03:28;16.80;99.90
27164;DHT22;14685;50.618;7.024;2023-05-10T02:05:56;16.80;99.90
27164;DHT22;14685;50.618;7.024;2023-05-10T02:08:24;16.80;99.90
27164;DHT22;14685;50.618;7.024;2023-05-10T02:10:53;16.80;99.90
27164;DHT22;14685;50.618;7.024;2023-05-10T02:13:23;16.80;99.90
27164;DHT22;14685;50.618;7.024;2023-05-10T02:15:51;16.90;99.90
27164;DHT22;14685;50.618;7.024;2023-05-10T02:18:20;16.90;99.90
27164;DHT22;14685;50.618;7.024;2023-05-10T02:20:48;16.80;99.90
27164;DHT22;14685;50.618;7.024;2023-05-10T02:23:17;16.90;99.90
27164;DHT22;14685;50.618;7.024;2023-05-10T02:25:45;16.90;99.90
27164;DHT22;14685;50.618;7.024;2023-05-10T02:28:14;16.90;99.90
27164;DHT22;14685;50.618;7.024;2023-05-10T02:30:41;16.90;99.90
27164;DHT22;14685;50.618;7.024;2023-05-10T02:33:09;16.90;99.90
27164;DHT22;14685;50.618;7.024;2023-05-10T02:35:38;16.90;99.90
27164;DHT22;14685;50.618;7.024;2023-05-10T02:38:05;16.90;99.90
27164;DHT22;14685;50.618;7.024;2023-05-10T02:40:33;16.80;99.90
27164;DHT22;14685;50.618;7.024;2023-05-10T02:43:04;16.80;99.90
27164;DHT22;14685;50.618;7.024;2023-05-10T02:45:32;16.80;99.90
27164;DHT22;14685;50.618;7.024;2023-05-10T02:48:00;16.80;99.90
27164;DHT22;14685;50.618;7.024;2023-05-10T02:50:28;16.80;99.90
27164;DHT22;14685;50.618;7.024;2023-05-10T02:53:00;16.80;99.90
27164;DHT22;14685;50.618;7.024;2023-05-10T02:55:37;16.80;99.90
27164;DHT22;14685;50.618;7.024;2023-05-10T02:58:05;16.80;99.90
27164;DHT22;14685;50.618;7.024;2023-05-10T03:00:32;16.70;99.90
27164;DHT22;14685;50.618;7.024;2023-05-10T03:03:00;16.70;99.90
27164;DHT22;14685;50.618;7.024;2023-05-10T03:05:29;16.70;99.90
27164;DHT22;14685;50.618;7.024;2023-05-10T03:07:56;16.70;99.90
27164;DHT22;14685;50.618;7.024;2023-05-10T03:10:29;16.70;99.90
27164;DHT22;14685;50.618;7.024;2023-05-10T03:15:52;16.80;99.90
27164;DHT22;14685;50.618;7.024;2023-05-10T03:18:48;16.80;99.90
27164;DHT22;14685;50.618;7.024;2023-05-10T03:21:18;16.80;99.90
27164;DHT22;14685;50.618;7.024;2023-05-10T03:23:59;16.80;99.90
27164;DHT22;14685;50.618;7.024;2023-05-10T03:26:28;16.80;99.90
27164;DHT22;14685;50.618;7.024;2023-05-10T03:28:57;16.80;99.90
27164;DHT22;14685;50.618;7.024;2023-05-10T03:31:25;16.80;99.90
27164;DHT22;14685;50.618;7.024;2023-05-10T03:33:53;16.80;99.90
27164;DHT22;14685;50.618;7.024;2023-05-10T03:36:20;16.80;99.90
27164;DHT22;14685;50.618;7.024;2023-05-10T03:38:47;16.80;99.90
27164;DHT22;14685;50.618;7.024;2023-05-10T03:41:17;16.80;99.90
27164;DHT22;14685;50.618;7.024;2023-05-10T03:43:45;16.80;99.90
27164;DHT22;14685;50.618;7.024;2023-05-10T03:46:12;16.70;99.90
27164;DHT22;14685;50.618;7.024;2023-05-10T03:48:38;16.80;99.90
27164;DHT22;14685;50.618;7.024;2023-05-10T03:51:05;16.70;99.90
27164;DHT22;14685;50.618;7.024;2023-05-10T03:53:32;16.70;99.90
27164;DHT22;14685;50.618;7.024;2023-05-10T03:56:00;16.70;99.90
27164;DHT22;14685;50.618;7.024;2023-05-10T03:58:27;16.80;99.90
27164;DHT22;14685;50.618;7.024;2023-05-10T04:01:01;16.70;99.90
27164;DHT22;14685;50.618;7.024;2023-05-10T04:03:27;16.70;99.90
27164;DHT22;14685;50.618;7.024;2023-05-10T04:06:01;16.80;99.90
27164;DHT22;14685;50.618;7.024;2023-05-10T04:08:28;16.70;99.90
27164;DHT22;14685;50.618;7.024;2023-05-10T04:11:17;16.80;99.90
27164;DHT22;14685;50.618;7.024;2023-05-10T04:13:44;16.70;99.90
27164;DHT22;14685;50.618;7.024;2023-05-10T04:16:11;16.80;99.90
27164;DHT22;14685;50.618;7.024;2023-05-10T04:18:38;16.80;99.90
27164;DHT22;14685;50.618;7.024;2023-05-10T04:21:12;16.80;99.90
27164;DHT22;14685;50.618;7.024;2023-05-10T04:23:39;16.80;99.90
27164;DHT22;14685;50.618;7.024;2023-05-10T04:26:11;16.70;99.90
27164;DHT22;14685;50.618;7.024;2023-05-10T04:28:38;16.80;99.90
27164;DHT22;14685;50.618;7.024;2023-05-10T04:31:09;16.80;99.90
27164;DHT22;14685;50.618;7.024;2023-05-10T04:33:37;16.80;99.90
27164;DHT22;14685;50.618;7.024;2023-05-10T04:36:05;16.80;99.90
27164;DHT22;14685;50.618;7.024;2023-05-10T04:38:32;16.80;99.90
27164;DHT22;14685;50.618;7.024;2023-05-10T04:41:09;16.70;99.90
27164;DHT22;14685;50.618;7.024;2023-05-10T04:43:36;16.80;99.90
27164;DHT22;14685;50.618;7.024;2023-05-10T04:46:04;16.80;99.90
27164;DHT22;14685;50.618;7.024;2023-05-10T04:48:32;16.80;99.90
27164;DHT22;14685;50.618;7.024;2023-05-10T04:50:59;16.70;99.90
27164;DHT22;14685;50.618;7.024;2023-05-10T04:53:27;16.70;99.90
27164;DHT22;14685;50.618;7.024;2023-05-10T04:55:54;16.80;99.90
27164;DHT22;14685;50.618;7.024;2023-05-10T04:58:22;16.70;99.90
27164;DHT22;14685;50.618;7.024;2023-05-10T05:00:49;16.70;99.90
27164;DHT22;14685;50.618;7.024;2023-05-10T05:03:18;16.70;99.90
27164;DHT22;14685;50.618;7.024;2023-05-10T05:05:45;16.70;99.90
27164;DHT22;14685;50.618;7.024;2023-05-10T05:08:12;16.70;99.90
27164;DHT22;14685;50.618;7.024;2023-05-10T05:10:40;16.70;99.90
27164;DHT22;14685;50.618;7.024;2023-05-10T05:13:08;16.70;99.90
27164;DHT22;14685;50.618;7.024;2023-05-10T05:15:36;16.80;99.90
27164;DHT22;14685;50.618;7.024;2023-05-10T05:18:03;16.80;99.90
27164;DHT22;14685;50.618;7.024;2023-05-10T05:20:33;16.80;99.90
27164;DHT22;14685;50.618;7.024;2023-05-10T05:23:03;16.70;99.90
27164;DHT22;14685;50.618;7.024;2023-05-10T05:25:32;16.80;99.90
27164;DHT22;14685;50.618;7.024;2023-05-10T05:27:59;16.80;99.90
27164;DHT22;14685;50.618;7.024;2023-05-10T05:30:26;16.80;99.90
27164;DHT22;14685;50.618;7.024;2023-05-10T05:32:54;16.80;99.90
27164;DHT22;14685;50.618;7.024;2023-05-10T05:35:22;16.90;99.90
27164;DHT22;14685;50.618;7.024;2023-05-10T05:37:52;16.90;99.90
27164;DHT22;14685;50.618;7.024;2023-05-10T05:40:19;16.90;99.90
27164;DHT22;14685;50.618;7.024;2023-05-10T05:42:48;16.90;99.90
27164;DHT22;14685;50.618;7.024;2023-05-10T05:45:15;17.00;99.90
27164;DHT22;14685;50.618;7.024;2023-05-10T05:47:43;17.00;99.90
27164;DHT22;14685;50.618;7.024;2023-05-10T05:50:11;17.00;99.90
27164;DHT22;14685;50.618;7.024;2023-05-10T05:52:38;17.00;99.90
27164;DHT22;14685;50.618;7.024;2023-05-10T05:55:05;17.00;99.90
27164;DHT22;14685;50.618;7.024;2023-05-10T05:57:33;17.10;99.90
27164;DHT22;14685;50.618;7.024;2023-05-10T06:00:00;17.00;99.90
27164;DHT22;14685;50.618;7.024;2023-05-10T06:02:30;17.10;99.90
27164;DHT22;14685;50.618;7.024;2023-05-10T06:04:58;17.10;99.90
27164;DHT22;14685;50.618;7.024;2023-05-10T06:07:24;17.10;99.90
27164;DHT22;14685;50.618;7.024;2023-05-10T06:09:53;17.20;99.90
27164;DHT22;14685;50.618;7.024;2023-05-10T06:12:22;17.20;99.90
27164;DHT22;14685;50.618;7.024;2023-05-10T06:14:49;17.20;99.90
27164;DHT22;14685;50.618;7.024;2023-05-10T06:17:16;17.20;99.90
27164;DHT22;14685;50.618;7.024;2023-05-10T06:19:45;17.20;99.90
27164;DHT22;14685;50.618;7.024;2023-05-10T06:22:12;17.30;99.90
27164;DHT22;14685;50.618;7.024;2023-05-10T06:24:38;17.30;99.90
27164;DHT22;14685;50.618;7.024;2023-05-10T06:27:06;17.30;99.90
27164;DHT22;14685;50.618;7.024;2023-05-10T06:29:33;17.30;99.90
27164;DHT22;14685;50.618;7.024;2023-05-10T06:32:01;17.30;99.90
27164;DHT22;14685;50.618;7.024;2023-05-10T06:34:29;17.30;99.90
27164;DHT22;14685;50.618;7.024;2023-05-10T06:36:56;17.30;99.90
27164;DHT22;14685;50.618;7.024;2023-05-10T06:39:23;17.30;99.90
27164;DHT22;14685;50.618;7.024;2023-05-10T06:41:50;17.30;99.90
27164;DHT22;14685;50.618;7.024;2023-05-10T06:44:17;17.30;99.90
27164;DHT22;14685;50.618;7.024;2023-05-10T06:46:44;17.30;99.90
27164;DHT22;14685;50.618;7.024;2023-05-10T06:49:11;17.30;99.90
27164;DHT22;14685;50.618;7.024;2023-05-10T06:51:38;17.30;99.90
27164;DHT22;14685;50.618;7.024;2023-05-10T06:54:05;17.30;99.90
27164;DHT22;14685;50.618;7.024;2023-05-10T06:56:33;17.30;99.90
27164;DHT22;14685;50.618;7.024;2023-05-10T06:59:00;17.40;99.90
27164;DHT22;14685;50.618;7.024;2023-05-10T07:01:27;17.30;99.90
27164;DHT22;14685;50.618;7.024;2023-05-10T07:03:55;17.40;99.90
27164;DHT22;14685;50.618;7.024;2023-05-10T07:06:22;17.40;99.90
27164;DHT22;14685;50.618;7.024;2023-05-10T07:09:00;17.40;99.90
27164;DHT22;14685;50.618;7.024;2023-05-10T07:11:27;17.40;99.90
27164;DHT22;14685;50.618;7.024;2023-05-10T07:13:54;17.40;99.90
27164;DHT22;14685;50.618;7.024;2023-05-10T07:16:22;17.40;99.90
27164;DHT22;14685;50.618;7.024;2023-05-10T07:18:49;17.40;99.90
27164;DHT22;14685;50.618;7.024;2023-05-10T07:21:17;17.40;99.90
27164;DHT22;14685;50.618;7.024;2023-05-10T07:23:44;17.50;99.90
27164;DHT22;14685;50.618;7.024;2023-05-10T07:26:11;17.50;99.90
27164;DHT22;14685;50.618;7.024;2023-05-10T07:28:39;17.50;99.90
27164;DHT22;14685;50.618;7.024;2023-05-10T07:31:07;17.50;99.90
27164;DHT22;14685;50.618;7.024;2023-05-10T07:33:34;17.50;99.90
27164;DHT22;14685;50.618;7.024;2023-05-10T07:36:01;17.70;99.90
27164;DHT22;14685;50.618;7.024;2023-05-10T07:38:29;17.70;99.90
27164;DHT22;14685;50.618;7.024;2023-05-10T07:40:56;17.70;99.90
27164;DHT22;14685;50.618;7.024;2023-05-10T07:43:23;17.70;99.90
27164;DHT22;14685;50.618;7.024;2023-05-10T07:45:50;17.70;99.90
27164;DHT22;14685;50.618;7.024;2023-05-10T07:48:20;17.70;99.90
27164;DHT22;14685;50.618;7.024;2023-05-10T07:50:47;17.70;99.90
27164;DHT22;14685;50.618;7.024;2023-05-10T07:53:14;17.70;99.90
27164;DHT22;14685;50.618;7.024;2023-05-10T07:55:43;17.70;99.90
27164;DHT22;14685;50.618;7.024;2023-05-10T07:58:10;17.70;99.90
27164;DHT22;14685;50.618;7.024;2023-05-10T08:00:37;17.70;99.90
27164;DHT22;14685;50.618;7.024;2023-05-10T08:03:09;17.70;99.90
27164;DHT22;14685;50.618;7.024;2023-05-10T08:05:37;17.70;99.90
27164;DHT22;14685;50.618;7.024;2023-05-10T08:08:05;17.70;99.90
27164;DHT22;14685;50.618;7.024;2023-05-10T08:10:32;17.70;99.90
27164;DHT22;14685;50.618;7.024;2023-05-10T08:12:59;17.80;99.90
27164;DHT22;14685;50.618;7.024;2023-05-10T08:15:27;17.80;99.90
27164;DHT22;14685;50.618;7.024;2023-05-10T08:17:58;17.80;99.90
27164;DHT22;14685;50.618;7.024;2023-05-10T08:20:26;17.80;99.90
27164;DHT22;14685;50.618;7.024;2023-05-10T08:22:52;17.80;99.90
27164;DHT22;14685;50.618;7.024;2023-05-10T08:25:20;17.90;99.90
27164;DHT22;14685;50.618;7.024;2023-05-10T08:27:47;17.90;99.90
27164;DHT22;14685;50.618;7.024;2023-05-10T08:30:15;17.80;99.90
27164;DHT22;14685;50.618;7.024;2023-05-10T08:32:45;17.90;99.90
27164;DHT22;14685;50.618;7.024;2023-05-10T08:35:15;17.80;99.90
27164;DHT22;14685;50.618;7.024;2023-05-10T08:37:43;17.80;99.90
27164;DHT22;14685;50.618;7.024;2023-05-10T08:40:11;17.70;99.90
27164;DHT22;14685;50.618;7.024;2023-05-10T08:42:40;17.70;99.90
27164;DHT22;14685;50.618;7.024;2023-05-10T08:45:10;17.70;99.90
27164;DHT22;14685;50.618;7.024;2023-05-10T08:47:38;17.60;99.90
27164;DHT22;14685;50.618;7.024;2023-05-10T08:50:06;17.60;99.90
27164;DHT22;14685;50.618;7.024;2023-05-10T08:52:38;17.50;99.90
27164;DHT22;14685;50.618;7.024;2023-05-10T08:55:07;17.50;99.90
27164;DHT22;14685;50.618;7.024;2023-05-10T08:57:35;17.40;99.90
27164;DHT22;14685;50.618;7.024;2023-05-10T09:00:03;17.40;99.90
27164;DHT22;14685;50.618;7.024;2023-05-10T09:02:30;17.40;99.90
27164;DHT22;14685;50.618;7.024;2023-05-10T09:04:57;17.30;99.90
27164;DHT22;14685;50.618;7.024;2023-05-10T09:07:24;17.30;99.90
27164;DHT22;14685;50.618;7.024;2023-05-10T09:09:52;17.30;99.90
27164;DHT22;14685;50.618;7.024;2023-05-10T09:12:21;17.30;99.90
27164;DHT22;14685;50.618;7.024;2023-05-10T09:14:51;17.40;99.90
27164;DHT22;14685;50.618;7.024;2023-05-10T09:17:20;17.40;99.90
27164;DHT22;14685;50.618;7.024;2023-05-10T09:19:50;17.40;99.90
27164;DHT22;14685;50.618;7.024;2023-05-10T09:22:17;17.40;99.90
27164;DHT22;14685;50.618;7.024;2023-05-10T09:24:44;17.50;99.90
27164;DHT22;14685;50.618;7.024;2023-05-10T09:27:12;17.50;99.90
27164;DHT22;14685;50.618;7.024;2023-05-10T09:29:40;17.60;99.90
27164;DHT22;14685;50.618;7.024;2023-05-10T09:32:08;17.60;99.90
27164;DHT22;14685;50.618;7.024;2023-05-10T09:34:35;17.80;99.90
27164;DHT22;14685;50.618;7.024;2023-05-10T09:37:07;17.90;99.90
27164;DHT22;14685;50.618;7.024;2023-05-10T09:39:36;17.90;99.90
27164;DHT22;14685;50.618;7.024;2023-05-10T09:42:08;18.00;99.90
27164;DHT22;14685;50.618;7.024;2023-05-10T09:44:36;18.20;99.90
27164;DHT22;14685;50.618;7.024;2023-05-10T09:47:05;18.20;99.90
27164;DHT22;14685;50.618;7.024;2023-05-10T09:49:32;18.30;99.90
27164;DHT22;14685;50.618;7.024;2023-05-10T09:52:01;18.20;99.90
27164;DHT22;14685;50.618;7.024;2023-05-10T09:54:29;18.30;99.90
27164;DHT22;14685;50.618;7.024;2023-05-10T09:56:56;18.30;99.90
27164;DHT22;14685;50.618;7.024;2023-05-10T09:59:26;18.30;99.90
27164;DHT22;14685;50.618;7.024;2023-05-10T10:01:58;18.30;99.90
27164;DHT22;14685;50.618;7.024;2023-05-10T10:04:26;18.30;99.90
27164;DHT22;14685;50.618;7.024;2023-05-10T10:07:03;18.20;99.90
27164;DHT22;14685;50.618;7.024;2023-05-10T10:09:32;18.20;99.90
27164;DHT22;14685;50.618;7.024;2023-05-10T10:12:03;18.30;99.90
27164;DHT22;14685;50.618;7.024;2023-05-10T10:14:30;18.40;99.90
27164;DHT22;14685;50.618;7.024;2023-05-10T10:17:00;18.40;99.90
27164;DHT22;14685;50.618;7.024;2023-05-10T10:19:35;18.50;99.90
27164;DHT22;14685;50.618;7.024;2023-05-10T10:22:03;18.60;99.90
27164;DHT22;14685;50.618;7.024;2023-05-10T10:24:30;18.60;99.90
27164;DHT22;14685;50.618;7.024;2023-05-10T10:27:04;18.70;99.90
27164;DHT22;14685;50.618;7.024;2023-05-10T10:32:25;18.90;99.90
27164;DHT22;14685;50.618;7.024;2023-05-10T10:34:55;18.90;99.90
27164;DHT22;14685;50.618;7.024;2023-05-10T10:37:24;18.90;99.90
27164;DHT22;14685;50.618;7.024;2023-05-10T10:40:29;18.90;99.90
27164;DHT22;14685;50.618;7.024;2023-05-10T10:46:18;18.80;99.90
27164;DHT22;14685;50.618;7.024;2023-05-10T10:49:08;18.70;99.90
27164;DHT22;14685;50.618;7.024;2023-05-10T10:51:39;18.80;99.90
27164;DHT22;14685;50.618;7.024;2023-05-10T10:54:10;18.80;99.90
27164;DHT22;14685;50.618;7.024;2023-05-10T10:56:38;18.70;99.90
27164;DHT22;14685;50.618;7.024;2023-05-10T10:59:08;18.80;99.90
27164;DHT22;14685;50.618;7.024;2023-05-10T11:01:35;18.80;99.90
27164;DHT22;14685;50.618;7.024;2023-05-10T11:06:31;18.90;99.90
27164;DHT22;14685;50.618;7.024;2023-05-10T11:08:59;19.00;99.90
27164;DHT22;14685;50.618;7.024;2023-05-10T11:11:30;19.00;99.90
27164;DHT22;14685;50.618;7.024;2023-05-10T11:14:06;19.00;99.90
27164;DHT22;14685;50.618;7.024;2023-05-10T11:16:43;19.10;99.90
27164;DHT22;14685;50.618;7.024;2023-05-10T11:19:13;19.20;99.90
27164;DHT22;14685;50.618;7.024;2023-05-10T11:21:49;19.20;99.90
27164;DHT22;14685;50.618;7.024;2023-05-10T11:24:22;19.20;99.90
27164;DHT22;14685;50.618;7.024;2023-05-10T11:26:53;19.20;99.90
27164;DHT22;14685;50.618;7.024;2023-05-10T11:29:20;19.20;99.90
27164;DHT22;14685;50.618;7.024;2023-05-10T11:31:48;19.20;99.90
27164;DHT22;14685;50.618;7.024;2023-05-10T11:34:25;19.40;99.90
27164;DHT22;14685;50.618;7.024;2023-05-10T11:36:55;19.40;99.90
27164;DHT22;14685;50.618;7.024;2023-05-10T11:39:29;19.40;99.90
27164;DHT22;14685;50.618;7.024;2023-05-10T11:41:57;19.40;99.90
27164;DHT22;14685;50.618;7.024;2023-05-10T11:44:34;19.40;99.90
27164;DHT22;14685;50.618;7.024;2023-05-10T11:47:01;19.40;99.90
27164;DHT22;14685;50.618;7.024;2023-05-10T11:49:30;19.30;99.90
27164;DHT22;14685;50.618;7.024;2023-05-10T11:52:08;19.20;99.90
27164;DHT22;14685;50.618;7.024;2023-05-10T11:54:36;19.20;99.90
27164;DHT22;14685;50.618;7.024;2023-05-10T11:57:05;19.10;99.90
27164;DHT22;14685;50.618;7.024;2023-05-10T11:59:33;19.10;99.90
27164;DHT22;14685;50.618;7.024;2023-05-10T12:02:00;19.10;99.90
27164;DHT22;14685;50.618;7.024;2023-05-10T12:04:28;19.10;99.90
27164;DHT22;14685;50.618;7.024;2023-05-10T12:06:57;19.00;99.90
27164;DHT22;14685;50.618;7.024;2023-05-10T12:09:23;19.00;99.90
27164;DHT22;14685;50.618;7.024;2023-05-10T12:12:09;19.00;99.90
27164;DHT22;14685;50.618;7.024;2023-05-10T12:14:36;19.10;99.90
27164;DHT22;14685;50.618;7.024;2023-05-10T12:17:03;19.10;99.90
27164;DHT22;14685;50.618;7.024;2023-05-10T12:19:40;19.10;99.90
27164;DHT22;14685;50.618;7.024;2023-05-10T12:22:08;19.10;99.90
27164;DHT22;14685;50.618;7.024;2023-05-10T12:24:36;19.20;99.90
27164;DHT22;14685;50.618;7.024;2023-05-10T12:27:05;19.20;99.90
27164;DHT22;14685;50.618;7.024;2023-05-10T12:29:35;19.20;99.90
27164;DHT22;14685;50.618;7.024;2023-05-10T12:32:02;19.20;99.90
27164;DHT22;14685;50.618;7.024;2023-05-10T12:34:34;19.20;99.90
27164;DHT22;14685;50.618;7.024;2023-05-10T12:37:03;19.30;99.90
27164;DHT22;14685;50.618;7.024;2023-05-10T12:39:43;19.20;99.90
27164;DHT22;14685;50.618;7.024;2023-05-10T12:42:10;19.20;99.90
27164;DHT22;14685;50.618;7.024;2023-05-10T12:44:38;19.10;99.90
27164;DHT22;14685;50.618;7.024;2023-05-10T12:47:04;19.10;99.90
27164;DHT22;14685;50.618;7.024;2023-05-10T12:49:32;19.10;99.90
27164;DHT22;14685;50.618;7.024;2023-05-10T12:52:00;19.10;99.90
27164;DHT22;14685;50.618;7.024;2023-05-10T12:54:27;19.10;99.90
27164;DHT22;14685;50.618;7.024;2023-05-10T12:56:54;19.10;99.90
27164;DHT22;14685;50.618;7.024;2023-05-10T12:59:21;19.20;99.90
27164;DHT22;14685;50.618;7.024;2023-05-10T13:01:49;19.20;99.90
27164;DHT22;14685;50.618;7.024;2023-05-10T13:04:16;19.20;99.90
27164;DHT22;14685;50.618;7.024;2023-05-10T13:06:43;19.10;99.90
27164;DHT22;14685;50.618;7.024;2023-05-10T13:09:10;19.10;99.90
27164;DHT22;14685;50.618;7.024;2023-05-10T13:11:37;19.10;99.90
27164;DHT22;14685;50.618;7.024;2023-05-10T13:14:04;19.10;99.90
27164;DHT22;14685;50.618;7.024;2023-05-10T13:16:33;19.00;99.90
27164;DHT22;14685;50.618;7.024;2023-05-10T13:19:00;19.00;99.90
27164;DHT22;14685;50.618;7.024;2023-05-10T13:21:30;18.90;99.90
27164;DHT22;14685;50.618;7.024;2023-05-10T13:23:57;18.90;99.90
27164;DHT22;14685;50.618;7.024;2023-05-10T13:26:24;18.90;99.90
27164;DHT22;14685;50.618;7.024;2023-05-10T13:28:52;18.80;99.90
27164;DHT22;14685;50.618;7.024;2023-05-10T13:31:23;18.80;99.90
27164;DHT22;14685;50.618;7.024;2023-05-10T13:33:50;18.80;99.90
27164;DHT22;14685;50.618;7.024;2023-05-10T13:36:20;18.80;99.90
27164;DHT22;14685;50.618;7.024;2023-05-10T13:38:47;18.80;99.90
27164;DHT22;14685;50.618;7.024;2023-05-10T13:41:13;18.90;99.90
27164;DHT22;14685;50.618;7.024;2023-05-10T13:43:43;18.80;99.90
27164;DHT22;14685;50.618;7.024;2023-05-10T13:46:12;18.80;99.90
27164;DHT22;14685;50.618;7.024;2023-05-10T13:48:40;18.80;99.90
27164;DHT22;14685;50.618;7.024;2023-05-10T13:51:10;18.80;99.90
27164;DHT22;14685;50.618;7.024;2023-05-10T13:53:39;18.80;99.90
27164;DHT22;14685;50.618;7.024;2023-05-10T13:56:06;18.80;99.90
27164;DHT22;14685;50.618;7.024;2023-05-10T13:58:34;18.80;99.90
27164;DHT22;14685;50.618;7.024;2023-05-10T14:01:05;18.80;99.90
27164;DHT22;14685;50.618;7.024;2023-05-10T14:03:33;18.70;99.90
27164;DHT22;14685;50.618;7.024;2023-05-10T14:06:01;18.70;99.90
27164;DHT22;14685;50.618;7.024;2023-05-10T14:08:29;18.50;99.90
27164;DHT22;14685;50.618;7.024;2023-05-10T14:10:57;18.40;99.90
27164;DHT22;14685;50.618;7.024;2023-05-10T14:13:24;18.40;99.90
27164;DHT22;14685;50.618;7.024;2023-05-10T14:15:52;18.40;99.90
27164;DHT22;14685;50.618;7.024;2023-05-10T14:18:21;18.40;99.90
27164;DHT22;14685;50.618;7.024;2023-05-10T14:20:51;18.40;99.90
27164;DHT22;14685;50.618;7.024;2023-05-10T14:23:18;18.40;99.90
27164;DHT22;14685;50.618;7.024;2023-05-10T14:25:51;18.50;99.90
27164;DHT22;14685;50.618;7.024;2023-05-10T14:28:19;18.40;99.90
27164;DHT22;14685;50.618;7.024;2023-05-10T14:30:48;18.20;99.90
27164;DHT22;14685;50.618;7.024;2023-05-10T14:33:16;18.10;99.90
27164;DHT22;14685;50.618;7.024;2023-05-10T14:35:44;18.10;99.90
27164;DHT22;14685;50.618;7.024;2023-05-10T14:38:12;18.10;99.90
27164;DHT22;14685;50.618;7.024;2023-05-10T14:40:39;18.10;99.90
27164;DHT22;14685;50.618;7.024;2023-05-10T14:43:06;18.00;99.90
27164;DHT22;14685;50.618;7.024;2023-05-10T14:45:35;18.00;99.90
27164;DHT22;14685;50.618;7.024;2023-05-10T14:48:03;18.00;99.90
27164;DHT22;14685;50.618;7.024;2023-05-10T14:50:31;18.00;99.90
27164;DHT22;14685;50.618;7.024;2023-05-10T14:53:03;18.00;99.90
27164;DHT22;14685;50.618;7.024;2023-05-10T14:55:30;18.00;99.90
27164;DHT22;14685;50.618;7.024;2023-05-10T14:57:57;17.90;99.90
27164;DHT22;14685;50.618;7.024;2023-05-10T15:00:28;17.80;99.90
27164;DHT22;14685;50.618;7.024;2023-05-10T15:02:58;17.80;99.90
27164;DHT22;14685;50.618;7.024;2023-05-10T15:05:25;17.80;99.90
27164;DHT22;14685;50.618;7.024;2023-05-10T15:07:54;17.80;99.90
27164;DHT22;14685;50.618;7.024;2023-05-10T15:10:21;17.70;99.90
27164;DHT22;14685;50.618;7.024;2023-05-10T15:12:49;17.70;99.90
27164;DHT22;14685;50.618;7.024;2023-05-10T15:15:17;17.60;99.90
27164;DHT22;14685;50.618;7.024;2023-05-10T15:17:44;17.60;99.90
27164;DHT22;14685;50.618;7.024;2023-05-10T15:20:11;17.60;99.90
27164;DHT22;14685;50.618;7.024;2023-05-10T15:22:40;17.60;99.90
27164;DHT22;14685;50.618;7.024;2023-05-10T15:25:09;17.70;99.90
27164;DHT22;14685;50.618;7.024;2023-05-10T15:27:36;17.70;99.90
27164;DHT22;14685;50.618;7.024;2023-05-10T15:30:04;17.70;99.90
27164;DHT22;14685;50.618;7.024;2023-05-10T15:32:32;17.80;99.90
27164;DHT22;14685;50.618;7.024;2023-05-10T15:34:59;17.70;99.90
27164;DHT22;14685;50.618;7.024;2023-05-10T15:37:25;17.70;99.90
27164;DHT22;14685;50.618;7.024;2023-05-10T15:39:54;17.80;99.90
27164;DHT22;14685;50.618;7.024;2023-05-10T15:42:33;17.90;99.90
27164;DHT22;14685;50.618;7.024;2023-05-10T15:45:00;17.90;99.90
27164;DHT22;14685;50.618;7.024;2023-05-10T15:47:30;17.90;99.90
27164;DHT22;14685;50.618;7.024;2023-05-10T15:49:57;18.00;99.90
27164;DHT22;14685;50.618;7.024;2023-05-10T15:52:24;18.00;99.90
27164;DHT22;14685;50.618;7.024;2023-05-10T15:54:53;18.10;99.90
27164;DHT22;14685;50.618;7.024;2023-05-10T15:57:23;18.10;99.90
27164;DHT22;14685;50.618;7.024;2023-05-10T15:59:51;18.10;99.90
27164;DHT22;14685;50.618;7.024;2023-05-10T16:02:19;18.10;99.90
27164;DHT22;14685;50.618;7.024;2023-05-10T16:04:47;18.10;99.90
27164;DHT22;14685;50.618;7.024;2023-05-10T16:07:16;18.20;99.90